Cytokinetics Inc (NASDAQ:CYTK)

CAPS Rating: 3 out of 5

A biopharmaceutical company, focused on developing small molecule therapeutics for the treatment of cardiovascular diseases and cancer.

Results 1 - 99 of 189 : 1 2 Next »
Top
Pick
Member Name Member
Rating
Start
Date
Call Time
Frame
Start
Price
Stock
Gain
Index
Gain
Score Commentary
OttoBismarck 99.90 3/3/2015 Underperform 5Y $7.87 -6.23% -0.88% +5.34 0 Comment
icewater3 93.54 2/17/2015 Outperform 1Y $8.30 -11.08% -0.11% -10.97 0 Comment
vrpaul 73.93 1/21/2015 Outperform 5Y $7.26 +1.72% +3.53% -1.81 0 Comment
This player feels very strongly about this pick and has marked it a Top Pick. Top Picks do not affect a player’s score. skyrocket29 65.04 12/26/2014 Outperform 1Y $6.46 +14.24% +0.48% +13.76 0 Comment
dflo 81.52 12/5/2014 Outperform 5Y $4.57 +61.49% +0.83% +60.66 0 Comment
Playa14 < 20 11/28/2014 Outperform 5Y $4.58 +61.14% +1.02% +60.12 0 Comment
cthomas1017 92.31 11/18/2014 Underperform 5Y $4.11 +79.56% +2.52% -77.04 0 Comment
flemishinvestor < 20 11/18/2014 Outperform 3Y $4.21 +75.30% +2.10% +73.20 0 Comment
MacroHedge 94.80 11/7/2014 Outperform 5Y $4.11 +79.56% +3.14% +76.42 0 Comment
hayrettin 70.43 10/13/2014 Outperform 5Y $3.37 +118.99% +10.29% +108.70 0 Comment
ptanabe 85.49 9/9/2014 Outperform 5Y $3.67 +100.95% +4.75% +96.20 1 Comment
GyroDynasty 98.65 7/21/2014 Outperform 5Y $4.25 +73.65% +6.35% +67.30 0 Comment
OKwarrior 36.72 6/6/2014 Outperform 5Y $4.88 +51.23% +7.56% +43.67 1 Comment
ArmyRob 74.67 5/7/2014 Underperform 5Y $4.14 +78.26% +11.77% -66.49 0 Comment
AsianMatter < 20 4/28/2014 Outperform 3W $4.58 +61.14% +12.06% +49.08 0 Comment
portefeuille2 99.79 4/25/2014 Outperform 5Y $4.91 +50.46% +12.34% +38.12 0 Comment
peregrine 99.58 4/25/2014 Outperform 5Y $5.07 +45.56% +12.63% +32.93 0 Comment
portefeuille 99.74 4/16/2014 Outperform 5Y $8.95 -17.54% +13.01% -30.55 0 Comment
TerryFool 88.21 4/15/2014 Outperform 5Y $8.94 -17.45% +15.09% -32.54 1 Comment
TerryHoodSr 82.73 4/15/2014 Outperform 5Y $8.94 -17.45% +14.37% -31.82 1 Comment
IVolStrategy < 20 3/26/2014 Outperform 1Y $9.02 -18.18% +12.07% -30.25 0 Comment
Dmaral < 20 2/27/2014 Outperform 5Y $10.31 -28.42% +13.13% -41.55 0 Comment
This player feels very strongly about this pick and has marked it a Top Pick. Top Picks do not affect a player’s score. s2dbaker 92.30 1/10/2014 Outperform 5Y $9.22 -19.96% +14.14% -34.10 1 Comment
flypower 99.46 1/7/2014 Outperform 5Y $7.30 +1.10% +14.48% -13.38 0 Comment
HoosierDoozer 44.44 12/23/2013 Outperform 5Y $6.60 +11.82% +14.82% -3.00 0 Comment
grahamfordummies 73.92 8/8/2013 12/4/2013 Outperform 3Y $10.21 -27.72% +23.31% -51.03 1 Comment
cavemantrader 85.58 11/7/2013 Outperform 5Y $6.33 +16.59% +19.79% -3.20 0 Comment
mandynshane < 20 10/8/2013 Outperform NS $6.69 +10.31% +25.68% -15.37 0 Comment
ImFive 30.68 10/7/2013 Outperform 5Y $7.03 +4.98% +25.19% -20.22 0 Comment
ralonsot < 20 10/2/2013 Outperform 5Y $7.38 0% +24.16% -24.16 0 Comment
withoutDoubt 21.87 9/5/2013 Outperform 5Y $8.32 -11.35% +26.17% -37.53 0 Comment
fatmoneyrz 99.28 9/3/2013 Outperform 5Y $7.79 -5.26% +26.81% -32.07 0 Comment
KidJones 97.34 9/3/2013 Outperform 5Y $8.62 -14.39% +26.85% -41.24 0 Comment
Greeniesnack 46.34 8/23/2013 Outperform 5Y $11.11 -33.57% +25.85% -59.42 0 Comment
FoolPep 33.47 8/22/2013 Outperform 3M $11.60 -36.38% +27.11% -63.49 0 Comment
SCOTTRHUETTLCPA 63.62 8/19/2013 Underperform 3W $10.18 -27.50% +26.89% +54.40 0 Comment
rknapton < 20 8/7/2013 Underperform 5Y $10.55 -30.05% +23.88% +53.93 1 Comment
ababrmon 99.22 7/31/2013 Outperform 3M $12.47 -40.82% +24.26% -65.08 0 Comment
efarev 99.63 2/4/2011 7/26/2013 Outperform 5Y $11.16 -33.87% +60.17% -94.04 0 Comment
ronmcpeek < 20 7/19/2013 Outperform 5Y $13.43 -45.05% +24.38% -69.43 0 Comment
TMFEZMagic 32.60 7/15/2013 Underperform 5Y $13.76 -46.37% +24.82% +71.19 0 Comment
batman35 34.34 7/12/2013 Outperform 1Y $13.60 -45.74% +25.13% -70.87 0 Comment
kaletbaldrich27 < 20 7/10/2013 Outperform 1Y $13.30 -44.51% +27.18% -71.69 1 Comment
OriginalBarnacle 60.37 7/1/2013 Underperform 1Y $11.58 -36.27% +29.98% +66.25 0 Comment
Jsams82 < 20 7/1/2013 Outperform 1Y $11.58 -36.27% +29.98% -66.25 0 Comment
JJ68 < 20 6/26/2013 Outperform 5Y $12.10 -39.03% +31.33% -70.36 0 Comment
ytryan 39.30 6/19/2013 Outperform 5Y $11.28 -34.58% +27.28% -61.86 0 Comment
Scraming < 20 6/19/2013 Outperform 3M $11.58 -36.27% +26.62% -62.89 0 Comment
saab93boi 21.30 6/18/2013 Underperform 5Y $11.10 -33.51% +26.34% +59.85 0 Comment
shonny2 < 20 5/22/2013 Outperform 5Y $6.90 +6.97% +25.01% -18.05 0 Comment
ava5147 < 20 2/19/2013 Outperform 1Y $6.24 +18.27% +37.56% -19.29 0 Comment
mcdbenbe 50.77 2/19/2013 Outperform 5Y $6.24 +18.27% +37.56% -19.29 0 Comment
montys3 37.31 1/22/2013 Outperform 5Y $5.99 +23.28% +40.82% -17.54 0 Comment
Spyrig < 20 12/17/2012 Outperform 5Y $4.02 +83.58% +47.12% +36.46 0 Comment
mdrnsamurai < 20 12/12/2012 Outperform 5Y $4.29 +72.03% +45.56% +26.47 0 Comment
danculbertson 72.04 10/15/2012 Outperform 3M $4.41 +67.35% +45.89% +21.46 0 Comment
millerto 62.59 8/31/2012 Outperform 1Y $4.58 +61.23% +48.72% +12.51 0 Comment
IdahoInvestor 28.97 8/8/2012 Underperform 5Y $4.00 +84.46% +49.17% -35.29 0 Comment
iadops40 58.87 7/13/2012 Outperform 1Y $4.02 +83.58% +56.58% +27.00 0 Comment
THERULERGOD < 20 7/11/2012 Outperform 5Y $4.26 +73.24% +56.17% +17.07 0 Comment
greentah 60.64 7/9/2012 Outperform 5Y $4.32 +70.83% +54.82% +16.01 0 Comment
HongHue 59.99 7/6/2012 Outperform 1Y $3.90 +89.23% +54.72% +34.51 0 Comment
Harlequinvestor 39.17 6/18/2012 Outperform 1Y $5.16 +43.02% +56.91% -13.89 0 Comment
ConradMike55 < 20 5/10/2012 Outperform 3W $5.58 +32.26% +53.35% -21.09 0 Comment
Arsenal1860 < 20 5/10/2012 Outperform 5Y $5.58 +32.26% +53.35% -21.09 0 Comment
MythQuinn 81.95 5/8/2012 Outperform 3Y $5.52 +33.70% +53.53% -19.83 0 Comment
stainsolution 84.47 5/8/2012 Outperform 5Y $5.70 +29.47% +53.80% -24.33 0 Comment
foolbull12 < 20 5/8/2012 Outperform 5Y $5.52 +33.70% +53.97% -20.27 0 Comment
RBuskey106 64.22 3/15/2012 Outperform 5Y $7.14 +3.36% +49.11% -45.75 1 Comment
TechSci 29.73 3/6/2012 Outperform 5Y $6.54 +12.84% +55.32% -42.47 0 Comment
mhy729 30.70 2/17/2011 2/13/2012 Outperform 1Y $9.18 -19.59% +56.77% -76.36 0 Comment
drt2202 < 20 12/29/2011 Outperform 5Y $5.94 +24.24% +67.36% -43.12 0 Comment
CaptainVegetable < 20 8/5/2011 Outperform 5Y $7.14 +3.36% +72.38% -69.02 0 Comment
pobeda79 33.92 6/20/2011 Outperform 5Y $6.90 +6.96% +65.53% -58.58 0 Comment
amsteinberg86 < 20 5/31/2011 Outperform 3Y $8.64 -14.58% +55.52% -70.11 0 Comment
codyjr002 98.12 5/27/2011 Outperform 5Y $8.64 -14.58% +57.00% -71.59 0 Comment
Thleter 56.22 5/24/2011 Outperform 1Y $8.10 -8.89% +58.82% -67.71 1 Comment
ag77840 23.38 5/18/2011 Outperform 5Y $8.61 -14.29% +56.21% -70.49 0 Comment
Doggity 71.86 5/17/2011 Outperform 5Y $8.64 -14.58% +57.96% -72.55 0 Comment
Euro247 35.71 5/13/2011 Outperform 5Y $8.79 -16.04% +56.57% -72.61 0 Comment
inouye 60.01 5/3/2011 Outperform 1Y $8.52 -13.38% +54.62% -68.00 0 Comment
NVTreasureHunter 28.90 4/27/2011 Outperform NS $9.00 -18.00% +55.20% -73.20 0 Comment
Squeege1981 50.69 4/18/2011 Outperform 5Y $8.64 -14.58% +60.50% -75.09 0 Comment
reachmygoals1 < 20 4/11/2011 Outperform 3M $8.94 -17.45% +57.59% -75.04 0 Comment
limeonaire 99.28 4/4/2011 Outperform 5Y $9.00 -18.00% +57.09% -75.09 0 Comment
ajhers2 < 20 3/25/2011 Outperform 5Y $8.46 -12.77% +58.98% -71.75 0 Comment
lombardy 30.77 3/22/2011 Outperform 5Y $7.62 -3.15% +61.58% -64.73 0 Comment
binyalazar < 20 3/10/2011 Outperform 5Y $8.99 -17.95% +60.51% -78.46 0 Comment
WorldOnFire 28.46 2/23/2011 Outperform 3W $8.70 -15.17% +59.09% -74.26 0 Comment
HackInvestor < 20 2/22/2011 Outperform 5Y $9.12 -19.08% +57.45% -76.53 0 Comment
cheaply 22.15 2/10/2011 Outperform 1Y $11.16 -33.87% +59.27% -93.14 1 Comment
phineas333 30.36 2/10/2011 Outperform 5Y $11.04 -33.15% +59.27% -92.42 0 Comment
Cjbrat1 29.29 1/10/2011 Outperform 5Y $12.36 -40.29% +65.59% -105.88 0 Comment
atlasbooks 86.34 1/4/2011 Outperform 3M $12.96 -43.06% +64.61% -107.67 0 Comment
FinanceGuy58 64.64 12/20/2010 Outperform 5Y $13.14 -43.84% +68.16% -112.00 0 Comment
Okcfirefighter < 20 12/17/2010 Outperform 5Y $12.72 -41.98% +68.57% -110.55 0 Comment
smcnei2 27.78 12/13/2010 Outperform NS $13.80 -46.52% +67.61% -114.13 0 Comment
huthuthike 28.49 12/10/2010 Outperform 5Y $16.56 -55.43% +68.52% -123.95 0 Comment
isr2011 50.25 11/18/2010 Outperform 5Y $13.20 -44.09% +74.32% -118.41 0 Comment
Results 1 - 99 of 189 : 1 2 Next »

Featured Broker Partners


Advertisement